Time;durP1;ratioP1;P1;durP2;ratioP2;P2;SDS_P1;SDS_P2;PMS_P1;PMS_P2;Temp;Humidity;BMP_temperature;BMP_pressure;BME280_temperature;BME280_humidity;BME280_pressure;Samples;Min_cycle;Max_cycle;Signal;HPM_P1;HPM_P2
2022/11/17 00:00:20;;;;;;;1.85;1.75;;;;;;;3.27;89.21;100425.00;5003535;28;20223;-48
2022/11/17 00:02:46;;;;;;;2.55;2.10;;;;;;;3.24;89.28;100414.47;4934997;29;20209;-50
2022/11/17 00:05:12;;;;;;;2.28;1.60;;;;;;;3.22;89.43;100411.81;5005593;28;20180;-48
2022/11/17 00:07:38;;;;;;;2.00;1.80;;;;;;;3.20;89.56;100426.84;4938663;28;20738;-49
2022/11/17 00:10:04;;;;;;;6.88;1.60;;;;;;;3.20;89.94;100410.09;4938132;28;20195;-48
2022/11/17 00:15:14;;;;;;;3.90;1.85;;;;;;;3.17;90.10;100408.38;4933375;29;20187;-50
2022/11/17 00:17:39;;;;;;;2.72;1.90;;;;;;;3.13;90.17;100409.31;5004460;28;20226;-48
2022/11/17 00:22:50;;;;;;;3.63;2.13;;;;;;;3.09;90.39;100405.84;4933850;29;20191;-47
2022/11/17 00:25:15;;;;;;;4.68;2.20;;;;;;;3.10;90.87;100398.75;4935315;29;20191;-45
2022/11/17 00:27:41;;;;;;;3.00;2.22;;;;;;;3.09;91.12;100407.63;4937886;29;20615;-49
2022/11/17 00:30:07;;;;;;;2.38;2.20;;;;;;;3.09;91.07;100399.69;5008558;28;20178;-49
2022/11/17 00:35:16;;;;;;;3.22;2.30;;;;;;;3.04;91.32;100420.03;4937682;29;20202;-49
2022/11/17 00:38:14;;;;;;;3.08;2.78;;;;;;;3.11;91.47;100382.00;4937556;28;20211;-50
2022/11/17 00:40:28;;;;;;;3.30;2.30;;;;;;;3.04;91.83;100401.50;4935816;28;20681;-48
2022/11/17 00:42:54;;;;;;;4.35;2.15;;;;;;;3.08;91.88;100403.19;4941478;29;20193;-47
2022/11/17 00:45:19;;;;;;;3.63;2.03;;;;;;;3.01;91.96;100377.72;4939168;29;20242;-49
2022/11/17 00:47:45;;;;;;;2.65;2.40;;;;;;;3.03;92.12;100381.22;4934979;28;20700;-50
2022/11/17 00:50:10;;;;;;;4.07;2.55;;;;;;;2.95;92.45;100393.69;4937707;28;20187;-49
2022/11/17 00:52:35;;;;;;;3.30;2.22;;;;;;;2.95;92.71;100384.00;4936598;28;20176;-48
2022/11/17 00:55:01;;;;;;;4.65;2.40;;;;;;;2.94;92.85;100368.13;4931753;28;20253;-50
2022/11/17 00:57:27;;;;;;;2.42;2.17;;;;;;;2.95;92.51;100376.06;4938369;28;20210;-50
2022/11/17 00:59:52;;;;;;;2.17;2.00;;;;;;;2.96;93.08;100375.16;4937998;28;20183;-49
2022/11/17 01:02:18;;;;;;;2.65;2.45;;;;;;;2.89;93.43;100361.13;4936436;29;20299;-49
2022/11/17 01:04:43;;;;;;;3.72;2.60;;;;;;;2.95;93.68;100362.84;4942982;28;20190;-49
2022/11/17 01:07:09;;;;;;;5.30;2.50;;;;;;;2.89;93.74;100370.84;4998275;28;20247;-47
2022/11/17 01:09:34;;;;;;;3.15;2.60;;;;;;;2.87;94.15;100356.78;4936498;28;20640;-49
2022/11/17 01:12:00;;;;;;;3.88;2.55;;;;;;;2.88;94.06;100364.66;4944851;29;20186;-48
2022/11/17 01:14:28;;;;;;;4.15;2.70;;;;;;;2.86;94.42;100358.56;4935770;29;20267;-51
2022/11/17 01:16:54;;;;;;;3.78;2.70;;;;;;;2.79;94.64;100348.94;4930196;29;20297;-48
2022/11/17 01:19:20;;;;;;;3.63;3.33;;;;;;;2.82;94.65;100350.66;4930445;29;20710;-49
2022/11/17 01:21:46;;;;;;;8.05;2.50;;;;;;;2.81;94.79;100352.44;4935462;28;20207;-47
2022/11/17 01:24:14;;;;;;;5.10;2.95;;;;;;;2.79;94.82;100351.56;4933933;28;20278;-48
2022/11/17 01:26:41;;;;;;;2.60;2.40;;;;;;;2.70;95.00;100343.78;5000919;28;20590;-50
2022/11/17 01:29:09;;;;;;;3.33;2.95;;;;;;;2.73;95.10;100343.72;4937389;29;20199;-51
2022/11/17 01:31:37;;;;;;;4.10;2.63;;;;;;;2.71;95.05;100345.50;4940026;29;20179;-48
2022/11/17 01:34:04;;;;;;;3.22;2.85;;;;;;;2.76;95.54;100351.63;4936732;28;20183;-48
2022/11/17 01:37:17;;;;;;;3.10;2.83;;;;;;;2.70;95.48;100346.41;4939753;28;20202;-49
2022/11/17 01:39:25;;;;;;;4.50;2.70;;;;;;;2.70;95.86;100350.84;5004877;28;20671;-48
2022/11/17 01:41:52;;;;;;;3.20;2.83;;;;;;;2.67;95.96;100349.13;5003253;28;20207;-49
2022/11/17 01:44:39;;;;;;;3.53;3.05;;;;;;;2.62;96.27;100343.91;5020513;28;20214;-47
2022/11/17 01:47:15;;;;;;;4.30;2.70;;;;;;;2.70;96.29;100349.06;4932158;29;20310;-48
2022/11/17 01:49:40;;;;;;;4.72;3.15;;;;;;;2.68;96.84;100353.50;4936939;29;20228;-50
2022/11/17 01:52:10;;;;;;;3.38;3.05;;;;;;;2.76;97.30;100337.53;4943927;29;20190;-49
2022/11/17 01:54:40;;;;;;;3.88;3.47;;;;;;;2.76;97.55;100342.81;4934275;29;20183;-50
2022/11/17 01:57:11;;;;;;;4.90;3.53;;;;;;;2.81;97.86;100327.75;4935298;29;20566;-49
2022/11/17 01:59:39;;;;;;;5.43;3.70;;;;;;;2.84;98.00;100325.94;4933563;28;20218;-50
2022/11/17 02:02:05;;;;;;;4.78;4.35;;;;;;;2.88;98.18;100318.81;4939061;29;20214;-49
2022/11/17 02:04:43;;;;;;;4.50;4.10;;;;;;;2.85;98.45;100309.16;4933353;29;20790;-48
2022/11/17 02:07:24;;;;;;;4.40;3.97;;;;;;;2.87;98.61;100304.72;4935913;28;20687;-48
2022/11/17 02:09:52;;;;;;;4.40;4.00;;;;;;;2.86;98.77;100303.00;4931559;29;20194;-52
2022/11/17 02:12:20;;;;;;;4.63;4.10;;;;;;;2.86;98.84;100297.69;4931791;29;20273;-47
2022/11/17 02:14:49;;;;;;;5.97;4.60;;;;;;;2.84;98.92;100307.44;4932938;28;20191;-49
2022/11/17 02:17:15;;;;;;;6.30;5.10;;;;;;;2.88;98.92;100295.00;4941391;28;20245;-50
2022/11/17 02:19:44;;;;;;;6.20;4.60;;;;;;;2.89;99.14;100287.06;4935648;28;20277;-50
2022/11/17 02:22:28;;;;;;;5.65;5.07;;;;;;;2.85;98.93;100281.84;4936831;28;20211;-50
2022/11/17 02:25:19;;;;;;;9.20;5.15;;;;;;;2.85;99.32;100282.69;4936314;29;20202;-48
2022/11/17 02:28:16;;;;;;;6.65;5.68;;;;;;;2.83;99.00;100281.84;5018027;28;20203;-48
2022/11/17 02:31:02;;;;;;;7.10;5.63;;;;;;;2.83;99.04;100308.31;4934978;29;20198;-49
2022/11/17 02:33:39;;;;;;;7.25;6.55;;;;;;;2.80;99.22;100270.44;4935101;29;20198;-50
2022/11/17 02:36:28;;;;;;;7.43;6.60;;;;;;;2.83;99.34;100281.00;4937626;29;20226;-47
2022/11/17 02:39:18;;;;;;;7.47;6.32;;;;;;;2.82;99.07;100232.50;4941233;28;20179;-48
2022/11/17 02:41:54;;;;;;;7.65;6.47;;;;;;;2.81;99.01;100282.78;4935296;29;20242;-48
2022/11/17 02:44:43;;;;;;;7.63;6.80;;;;;;;2.76;98.75;100253.75;4944813;28;20171;-48
2022/11/17 02:47:14;;;;;;;8.05;7.20;;;;;;;2.77;98.95;100259.91;5019973;28;20234;-48
2022/11/17 02:49:53;;;;;;;9.25;8.20;;;;;;;2.71;98.99;100262.66;4934492;28;20213;-47
2022/11/17 02:52:20;;;;;;;9.00;7.20;;;;;;;2.72;98.77;100301.44;4937353;28;20175;-50
2022/11/17 02:54:45;;;;;;;8.98;8.07;;;;;;;2.73;98.76;100243.19;4943079;28;20203;-48
2022/11/17 02:57:31;;;;;;;8.90;8.02;;;;;;;2.66;98.92;100271.53;4935627;29;20260;-50
2022/11/17 03:00:02;;;;;;;9.45;7.47;;;;;;;2.61;99.00;100256.63;4937893;28;20222;-49
2022/11/17 03:02:34;;;;;;;9.23;8.23;;;;;;;2.60;99.14;100249.59;5007179;28;20310;-48
2022/11/17 03:05:13;;;;;;;9.80;8.38;;;;;;;2.57;99.56;100247.84;4946357;28;20191;-47
2022/11/17 03:07:57;;;;;;;10.65;8.77;;;;;;;2.57;99.76;100236.41;4934950;28;20261;-51
2022/11/17 03:10:33;;;;;;;11.65;8.43;;;;;;;2.56;99.88;100251.41;4940008;29;20210;-49
2022/11/17 03:12:59;;;;;;;9.02;8.13;;;;;;;2.63;100.00;100262.78;5014842;28;20213;-49
2022/11/17 03:15:58;;;;;;;9.68;8.65;;;;;;;2.53;99.95;100246.16;4936186;29;20198;-48
2022/11/17 03:18:48;;;;;;;10.00;8.38;;;;;;;2.56;100.00;100229.38;4939567;29;20228;-50
2022/11/17 03:21:31;;;;;;;10.68;8.27;;;;;;;2.53;100.00;100256.72;4934402;29;20237;-49
2022/11/17 03:24:11;;;;;;;10.00;8.38;;;;;;;2.54;100.00;100244.41;4935995;29;20195;-49
2022/11/17 03:26:41;;;;;;;9.30;8.32;;;;;;;2.52;100.00;100248.84;4935010;29;20314;-49
2022/11/17 03:29:11;;;;;;;9.82;8.50;;;;;;;2.47;100.00;100246.25;4933560;28;20278;-49
2022/11/17 03:31:40;;;;;;;9.95;8.50;;;;;;;2.50;100.00;100243.56;4932564;29;20656;-50
2022/11/17 03:34:11;;;;;;;11.60;10.05;;;;;;;2.50;100.00;100251.50;4936744;29;20667;-48
2022/11/17 03:36:40;;;;;;;9.75;8.77;;;;;;;2.51;100.00;100229.44;4949760;28;20813;-48
2022/11/17 03:39:15;;;;;;;9.98;8.95;;;;;;;2.46;100.00;100232.16;4936635;28;20202;-48
2022/11/17 03:41:45;;;;;;;11.48;9.82;;;;;;;2.42;100.00;100248.09;4943843;28;20254;-50
2022/11/17 03:44:15;;;;;;;11.35;9.90;;;;;;;2.44;100.00;100236.59;4932698;28;20271;-49
2022/11/17 03:46:42;;;;;;;11.57;10.48;;;;;;;2.43;100.00;100234.00;4939679;29;20207;-49
2022/11/17 03:49:19;;;;;;;12.25;10.43;;;;;;;2.40;100.00;100231.38;4934313;29;20530;-50
2022/11/17 03:51:45;;;;;;;12.93;10.48;;;;;;;2.38;100.00;100230.50;4938000;29;20603;-48
2022/11/17 03:54:12;;;;;;;12.20;11.00;;;;;;;2.36;100.00;100230.56;4937306;29;20190;-50
2022/11/17 03:56:57;;;;;;;12.48;10.70;;;;;;;2.35;100.00;100215.56;4937018;29;20194;-49
2022/11/17 03:59:45;;;;;;;12.38;11.18;;;;;;;2.39;100.00;100227.84;5026601;28;20194;-48
2022/11/17 04:02:17;;;;;;;11.20;9.98;;;;;;;2.33;100.00;100224.44;4947085;29;20207;-45
2022/11/17 04:05:04;;;;;;;11.43;10.27;;;;;;;2.33;100.00;100211.22;4939150;29;20212;-46
2022/11/17 04:07:31;;;;;;;11.50;9.93;;;;;;;2.33;100.00;100230.59;4935866;29;20580;-47
2022/11/17 04:09:56;;;;;;;12.93;10.70;;;;;;;2.33;100.00;100241.16;5008086;28;20206;-48
2022/11/17 04:17:50;;;;;;;14.02;11.00;;;;;;;2.31;100.00;100218.28;4936927;28;20734;-53
2022/11/17 04:20:16;;;;;;;11.68;10.45;;;;;;;2.33;100.00;100209.44;4942838;28;20643;-46
2022/11/17 04:22:41;;;;;;;13.15;10.13;;;;;;;2.30;100.00;100198.06;4942867;29;20663;-49
2022/11/17 04:25:07;;;;;;;13.20;9.50;;;;;;;2.22;100.00;100201.66;4936676;29;20303;-49
2022/11/17 04:30:17;;;;;;;13.15;10.45;;;;;;;2.23;100.00;100207.81;4937554;29;20210;-48
2022/11/17 04:32:43;;;;;;;13.93;10.63;;;;;;;2.29;100.00;100193.66;4943749;28;20671;-47
2022/11/17 04:35:08;;;;;;;13.48;9.18;;;;;;;2.21;100.00;100194.66;4930603;29;20187;-47
2022/11/17 04:37:33;;;;;;;11.05;9.60;;;;;;;2.19;100.00;100188.50;4933356;29;20825;-48
2022/11/17 04:39:59;;;;;;;13.85;10.48;;;;;;;2.19;100.00;100193.78;4936010;28;20273;-46
2022/11/17 04:42:25;;;;;;;16.25;9.88;;;;;;;2.17;99.89;100185.00;4937583;29;20252;-46
2022/11/17 04:44:50;;;;;;;12.50;9.82;;;;;;;2.19;100.00;100191.16;4936340;29;20667;-49
2022/11/17 04:47:16;;;;;;;12.93;9.65;;;;;;;2.17;99.98;100185.00;4945170;29;20586;-44
2022/11/17 04:49:41;;;;;;;11.80;9.48;;;;;;;2.16;100.00;100187.66;4938403;29;20188;-50
2022/11/17 04:52:07;;;;;;;14.18;10.82;;;;;;;2.15;100.00;100176.22;4935839;29;20183;-45
2022/11/17 04:54:33;;;;;;;12.27;10.05;;;;;;;2.12;100.00;100180.66;4940844;28;20189;-48
2022/11/17 04:56:58;;;;;;;14.05;10.93;;;;;;;2.06;100.00;100177.22;4941446;29;20687;-50
2022/11/17 04:59:24;;;;;;;13.85;10.63;;;;;;;2.07;100.00;100175.44;4933530;29;20182;-48
2022/11/17 05:01:49;;;;;;;15.93;10.63;;;;;;;2.10;100.00;100185.09;4940450;29;20226;-47
2022/11/17 05:07:02;;;;;;;12.95;10.27;;;;;;;2.09;100.00;100165.75;4939752;29;20704;-49
2022/11/17 05:09:27;;;;;;;16.55;11.48;;;;;;;2.11;100.00;100157.78;4935569;29;20187;-48
2022/11/17 05:14:37;;;;;;;17.35;11.93;;;;;;;2.04;100.00;100157.00;4933566;29;20237;-51
2022/11/17 05:17:07;;;;;;;21.33;12.82;;;;;;;2.03;100.00;100168.47;4939015;29;20195;-52
2022/11/17 05:19:43;;;;;;;19.85;12.98;;;;;;;2.06;100.00;100155.22;4936542;29;20214;-47
2022/11/17 05:24:55;;;;;;;18.52;12.32;;;;;;;2.10;100.00;100180.72;4938790;29;20184;-49
2022/11/17 05:27:21;;;;;;;20.15;12.48;;;;;;;2.05;100.00;100162.25;4941823;29;20195;-48
2022/11/17 05:29:47;;;;;;;16.02;12.20;;;;;;;2.03;100.00;100163.16;5006347;28;20191;-49
2022/11/17 05:32:13;;;;;;;14.48;12.15;;;;;;;2.03;100.00;100157.88;4944688;29;20572;-47
2022/11/17 05:34:38;;;;;;;15.90;11.45;;;;;;;2.04;100.00;100157.88;4931237;29;20230;-48
2022/11/17 05:37:05;;;;;;;15.57;11.07;;;;;;;2.03;100.00;100145.56;4937428;29;20707;-50
2022/11/17 05:39:30;;;;;;;17.75;11.48;;;;;;;2.02;100.00;100151.75;4937666;29;20181;-48
2022/11/17 05:41:56;;;;;;;12.55;9.60;;;;;;;2.01;100.00;100157.94;4937434;28;20477;-50
2022/11/17 05:44:21;;;;;;;15.65;10.63;;;;;;;2.00;100.00;100156.16;4946706;29;20179;-48
2022/11/17 05:46:47;;;;;;;11.25;10.05;;;;;;;2.02;100.00;100146.47;4933482;28;20195;-49
2022/11/17 05:49:12;;;;;;;10.93;8.55;;;;;;;2.05;100.00;100138.47;4938669;29;20187;-48
2022/11/17 05:51:38;;;;;;;12.02;9.98;;;;;;;2.06;100.00;100147.28;4936742;29;20640;-49
2022/11/17 05:54:03;;;;;;;10.18;9.00;;;;;;;2.08;100.00;100160.47;4940738;29;20257;-48
2022/11/17 05:56:38;;;;;;;11.85;8.95;;;;;;;2.08;100.00;100178.97;4940448;28;20225;-50
2022/11/17 05:59:34;;;;;;;9.82;8.85;;;;;;;2.08;100.00;100129.66;4936294;28;20195;-50
2022/11/17 06:02:06;;;;;;;15.35;8.65;;;;;;;2.09;100.00;100146.38;4941422;28;20246;-48
2022/11/17 06:04:32;;;;;;;9.63;8.63;;;;;;;2.08;100.00;100126.13;4936286;29;20724;-47
2022/11/17 06:06:59;;;;;;;9.68;8.25;;;;;;;2.09;100.00;100138.44;4944526;28;20230;-49
2022/11/17 06:09:27;;;;;;;12.13;8.75;;;;;;;2.10;99.90;100135.78;4945379;29;20214;-52
2022/11/17 06:11:53;;;;;;;10.57;8.48;;;;;;;2.09;99.77;100125.22;4954547;28;20183;-51
2022/11/17 06:14:18;;;;;;;10.00;9.00;;;;;;;2.10;99.80;100124.31;4938688;29;20190;-47
2022/11/17 06:16:47;;;;;;;12.82;9.55;;;;;;;2.09;99.85;100135.81;4944798;29;20236;-47
2022/11/17 06:19:18;;;;;;;13.73;10.85;;;;;;;2.06;99.62;100129.66;5005811;28;20191;-48
2022/11/17 06:21:44;;;;;;;12.02;10.73;;;;;;;2.04;99.50;100125.31;4935851;29;20191;-50
2022/11/17 06:24:10;;;;;;;14.93;12.18;;;;;;;2.03;99.44;100121.81;4948791;29;20183;-49
2022/11/17 06:26:36;;;;;;;14.98;12.20;;;;;;;1.98;99.36;100135.97;4938526;28;20655;-50
2022/11/17 06:29:03;;;;;;;16.38;12.57;;;;;;;1.96;99.62;100128.03;4944374;29;20195;-50
2022/11/17 06:31:31;;;;;;;16.80;11.77;;;;;;;2.01;99.47;100125.34;4946907;29;20239;-47
2022/11/17 06:34:00;;;;;;;15.65;12.50;;;;;;;1.95;99.50;100128.09;4945188;29;20214;-48
2022/11/17 06:36:26;;;;;;;16.73;13.35;;;;;;;1.96;99.77;100124.53;4941116;29;20691;-50
2022/11/17 06:38:51;;;;;;;17.88;13.73;;;;;;;2.11;100.00;100120.81;4938480;29;20195;-47
2022/11/17 06:41:17;;;;;;;18.25;16.02;;;;;;;2.01;99.60;100146.47;5014877;28;20479;-46
2022/11/17 06:43:42;;;;;;;16.27;13.10;;;;;;;1.95;99.77;100128.97;4947908;29;20221;-48
2022/11/17 06:46:08;;;;;;;17.10;13.40;;;;;;;1.91;99.56;100143.09;4949507;28;20542;-45
2022/11/17 06:48:34;;;;;;;15.95;13.13;;;;;;;1.91;99.87;100144.88;4946507;28;20190;-44
2022/11/17 06:51:04;;;;;;;15.45;13.80;;;;;;;1.90;99.77;100130.75;4941967;29;20184;-45
2022/11/17 06:53:30;;;;;;;15.50;12.90;;;;;;;1.92;99.91;100138.69;4935601;29;20175;-47
2022/11/17 06:56:08;;;;;;;14.13;12.50;;;;;;;1.93;100.00;100143.09;4945995;29;20223;-51
2022/11/17 06:58:36;;;;;;;16.55;13.73;;;;;;;1.91;99.90;100126.38;4942366;29;20276;-47
2022/11/17 07:01:12;;;;;;;16.60;13.00;;;;;;;1.93;100.00;100135.16;4940055;29;20203;-45
2022/11/17 07:03:39;;;;;;;13.57;12.18;;;;;;;2.00;100.00;100148.25;4939742;29;20225;-46
2022/11/17 07:06:07;;;;;;;14.85;13.00;;;;;;;1.99;100.00;100138.59;4946165;29;20749;-50
2022/11/17 07:08:34;;;;;;;14.32;12.40;;;;;;;2.05;100.00;100119.13;4941856;29;20241;-50
2022/11/17 07:11:05;;;;;;;12.25;10.65;;;;;;;2.08;100.00;100134.03;4947263;29;20702;-45
2022/11/17 07:13:32;;;;;;;13.00;11.30;;;;;;;2.07;100.00;100133.19;4941547;29;20186;-46
2022/11/17 07:16:03;;;;;;;12.23;10.93;;;;;;;2.06;100.00;100121.75;5006099;28;20206;-50
2022/11/17 07:18:28;;;;;;;12.55;11.05;;;;;;;2.12;100.00;100133.09;4941393;29;20194;-48
2022/11/17 07:20:54;;;;;;;14.20;10.90;;;;;;;2.11;100.00;100116.38;5008388;28;20361;-47
2022/11/17 07:23:20;;;;;;;10.77;9.68;;;;;;;2.13;99.95;100134.88;5002924;28;20215;-46
2022/11/17 07:25:46;;;;;;;10.07;9.07;;;;;;;2.14;100.00;100121.59;4943638;28;20264;-50
2022/11/17 07:28:13;;;;;;;10.15;8.48;;;;;;;2.11;99.68;100131.38;4936817;28;20263;-52
2022/11/17 07:30:39;;;;;;;10.63;8.50;;;;;;;2.13;99.66;100129.59;4938688;29;20187;-45
2022/11/17 07:33:05;;;;;;;10.05;8.25;;;;;;;2.10;99.68;100134.91;4940164;28;20179;-46
2022/11/17 07:35:30;;;;;;;9.45;8.55;;;;;;;2.13;99.26;100117.25;4943344;29;20186;-46
2022/11/17 07:37:58;;;;;;;10.15;8.75;;;;;;;2.16;99.44;100126.88;4936248;29;20694;-47
2022/11/17 07:40:23;;;;;;;9.90;8.95;;;;;;;2.12;99.66;100117.25;4939134;28;20180;-49
2022/11/17 07:42:49;;;;;;;14.95;9.32;;;;;;;2.14;99.64;100120.75;4937264;29;20637;-51
2022/11/17 07:45:16;;;;;;;9.88;8.98;;;;;;;2.11;99.78;100108.47;5004606;28;20195;-50
2022/11/17 07:47:42;;;;;;;10.27;9.27;;;;;;;2.10;99.81;100108.47;4937262;29;20686;-50
2022/11/17 07:50:08;;;;;;;11.05;8.82;;;;;;;2.05;99.64;100117.34;4936352;29;20176;-48
2022/11/17 07:52:33;;;;;;;9.23;8.32;;;;;;;2.08;99.99;100120.81;4938419;28;20179;-52
2022/11/17 07:54:59;;;;;;;8.77;7.88;;;;;;;2.12;100.00;100111.97;4932856;29;20563;-51
2022/11/17 07:57:27;;;;;;;8.15;7.13;;;;;;;2.14;100.00;100112.81;4936489;29;20191;-49
2022/11/17 07:59:53;;;;;;;10.27;7.65;;;;;;;2.15;99.67;100114.59;4936553;28;20195;-49
2022/11/17 08:02:18;;;;;;;7.22;6.47;;;;;;;2.15;99.91;100101.38;4936348;28;20731;-48
2022/11/17 08:04:44;;;;;;;7.55;6.85;;;;;;;2.16;99.98;100103.09;4945497;29;20191;-48
2022/11/17 08:07:09;;;;;;;7.85;7.10;;;;;;;2.11;99.95;100104.94;4939948;28;20366;-48
2022/11/17 08:09:35;;;;;;;7.10;6.50;;;;;;;2.12;100.00;100117.25;4932100;29;20172;-47
2022/11/17 08:12:01;;;;;;;7.30;6.60;;;;;;;2.20;99.93;100100.38;4941587;29;20662;-49
2022/11/17 08:14:26;;;;;;;9.23;6.40;;;;;;;2.21;99.90;100130.34;4936709;29;20215;-49
2022/11/17 08:16:52;;;;;;;6.90;6.25;;;;;;;2.17;99.68;100118.94;4941534;29;20203;-50
2022/11/17 08:19:17;;;;;;;6.78;5.88;;;;;;;2.20;99.56;100118.00;4940540;29;20257;-52
2022/11/17 08:21:43;;;;;;;6.53;5.93;;;;;;;2.22;99.34;100129.44;4937411;29;20202;-50
2022/11/17 08:24:11;;;;;;;7.50;6.55;;;;;;;2.20;99.41;100118.00;4938749;29;20274;-48
2022/11/17 08:26:36;;;;;;;6.63;6.03;;;;;;;2.23;99.08;100104.75;4939598;29;20211;-47
2022/11/17 08:29:02;;;;;;;8.02;6.20;;;;;;;2.20;99.06;100118.88;4936948;29;20187;-49
2022/11/17 08:31:27;;;;;;;7.57;6.78;;;;;;;2.20;99.01;100107.44;4940297;29;20175;-48
2022/11/17 08:33:53;;;;;;;6.32;5.72;;;;;;;2.27;98.98;100103.78;4934389;28;20595;-47
2022/11/17 08:36:18;;;;;;;6.53;5.90;;;;;;;2.18;99.21;100107.47;4933248;29;20207;-48
2022/11/17 08:38:44;;;;;;;6.40;5.80;;;;;;;2.20;99.01;100094.22;4938810;29;20219;-49
2022/11/17 08:41:09;;;;;;;6.20;5.70;;;;;;;2.23;98.92;100105.63;4992392;28;20333;-48
2022/11/17 08:43:35;;;;;;;7.30;6.45;;;;;;;2.28;98.97;100097.63;4938243;29;20197;-49
2022/11/17 08:46:01;;;;;;;6.68;6.07;;;;;;;2.28;98.79;100102.91;4941023;29;20206;-49
2022/11/17 08:48:31;;;;;;;9.23;5.88;;;;;;;2.30;98.87;100101.13;4942407;28;20282;-48
2022/11/17 08:50:57;;;;;;;6.70;6.10;;;;;;;2.30;98.88;100092.31;4938524;28;20256;-49
2022/11/17 08:53:23;;;;;;;6.85;6.15;;;;;;;2.33;98.71;100095.78;4958133;28;20187;-49
2022/11/17 08:55:49;;;;;;;8.32;6.43;;;;;;;2.37;98.69;100080.75;4951226;28;20640;-49
2022/11/17 08:58:15;;;;;;;7.20;6.22;;;;;;;2.37;98.51;100088.69;4930710;29;20183;-48
2022/11/17 09:00:41;;;;;;;7.28;5.95;;;;;;;2.40;98.47;100094.75;4935205;29;20916;-48
2022/11/17 09:03:11;;;;;;;8.23;6.07;;;;;;;2.39;98.45;100093.03;5004424;28;20868;-48
2022/11/17 09:05:42;;;;;;;6.90;6.20;;;;;;;2.38;98.22;100072.78;4957550;28;20252;-49
2022/11/17 09:08:08;;;;;;;6.68;5.95;;;;;;;2.43;98.31;100075.38;4937941;28;20279;-51
2022/11/17 09:10:36;;;;;;;7.60;6.20;;;;;;;2.45;98.13;100092.94;4948930;28;20261;-48
2022/11/17 09:13:02;;;;;;;6.30;5.70;;;;;;;2.52;98.02;100067.25;4943616;28;20198;-49
2022/11/17 09:15:27;;;;;;;7.00;6.18;;;;;;;2.54;98.09;100085.75;4940535;28;20191;-47
2022/11/17 09:17:53;;;;;;;6.38;5.80;;;;;;;2.49;97.88;100085.81;5007633;28;20221;-50
2022/11/17 09:20:19;;;;;;;6.55;5.93;;;;;;;2.47;98.04;100077.03;4937831;29;20190;-49
2022/11/17 09:22:45;;;;;;;8.57;6.03;;;;;;;2.49;97.92;100064.66;4938364;29;20198;-47
2022/11/17 09:25:11;;;;;;;6.68;6.07;;;;;;;2.53;97.96;100071.63;4934396;29;20240;-48
2022/11/17 09:27:37;;;;;;;7.43;6.13;;;;;;;2.60;98.31;100080.34;4931390;28;20319;-49
2022/11/17 09:30:03;;;;;;;6.80;6.20;;;;;;;2.54;97.86;100097.19;4937555;28;20232;-48
2022/11/17 09:32:28;;;;;;;6.93;6.20;;;;;;;2.56;97.88;100081.28;4935634;28;20564;-49
2022/11/17 09:34:54;;;;;;;7.50;6.00;;;;;;;2.59;98.08;100097.13;4932751;29;20195;-49
2022/11/17 09:37:21;;;;;;;7.75;6.10;;;;;;;2.58;98.04;100079.47;4938814;28;20194;-49
2022/11/17 09:39:47;;;;;;;10.68;6.57;;;;;;;2.66;97.77;100077.59;4930747;29;20195;-48
2022/11/17 09:42:16;;;;;;;6.60;5.95;;;;;;;2.65;97.99;100099.66;4937263;29;20696;-47
2022/11/17 09:45:06;;;;;;;8.05;6.40;;;;;;;2.70;97.87;100065.19;5009612;28;20191;-49
2022/11/17 09:47:59;;;;;;;7.93;5.90;;;;;;;2.67;97.92;100076.69;4935026;29;20211;-49
2022/11/17 09:50:36;;;;;;;6.65;6.05;;;;;;;2.69;97.81;100072.25;4938896;28;20252;-49
2022/11/17 09:53:21;;;;;;;6.70;6.00;;;;;;;2.71;97.67;100075.72;4937892;28;20567;-48
2022/11/17 09:55:54;;;;;;;6.45;5.85;;;;;;;2.74;97.75;100049.22;4938929;28;20201;-50
2022/11/17 09:58:38;;;;;;;8.20;5.43;;;;;;;2.76;97.66;100057.16;4941301;29;20194;-49
2022/11/17 10:01:04;;;;;;;7.50;5.65;;;;;;;2.73;97.85;100062.47;4936472;29;20194;-49
2022/11/17 10:03:32;;;;;;;6.32;5.72;;;;;;;2.79;97.53;100057.06;4932010;29;20241;-49
2022/11/17 10:06:00;;;;;;;5.70;5.20;;;;;;;2.80;97.64;100074.69;4935276;29;20191;-49
2022/11/17 10:08:38;;;;;;;7.85;5.60;;;;;;;2.79;97.66;100065.00;4993980;28;20608;-50
2022/11/17 10:11:30;;;;;;;6.68;6.00;;;;;;;2.80;97.17;100053.50;5003016;28;20193;-49
2022/11/17 10:13:56;;;;;;;7.25;6.07;;;;;;;2.82;97.27;100049.06;5020131;28;20180;-49
2022/11/17 10:16:22;;;;;;;6.80;5.93;;;;;;;2.82;97.51;100036.75;4934654;28;20207;-51
2022/11/17 10:18:48;;;;;;;7.32;6.00;;;;;;;2.79;97.10;100034.13;5002981;28;20565;-49
2022/11/17 10:21:13;;;;;;;7.95;5.82;;;;;;;2.80;96.99;100032.34;4937963;28;20656;-48
2022/11/17 10:23:43;;;;;;;6.97;6.18;;;;;;;2.83;96.93;100030.53;4939189;28;20228;-49
2022/11/17 10:26:12;;;;;;;6.53;5.93;;;;;;;2.85;96.82;100020.78;4995599;28;20225;-49
2022/11/17 10:28:38;;;;;;;8.50;6.25;;;;;;;2.85;96.95;100015.50;5002427;28;20690;-50
2022/11/17 10:31:10;;;;;;;7.07;5.85;;;;;;;2.81;96.54;100024.41;5002081;28;20417;-49
2022/11/17 10:33:37;;;;;;;6.63;6.03;;;;;;;2.81;96.65;100034.13;4941612;29;20773;-47
2022/11/17 10:36:12;;;;;;;7.47;6.18;;;;;;;2.79;96.58;100027.97;5003799;28;20242;-49
2022/11/17 10:38:43;;;;;;;9.10;6.20;;;;;;;2.79;96.59;100028.84;4943058;28;20205;-49
2022/11/17 10:41:14;;;;;;;9.35;6.50;;;;;;;2.77;96.74;100017.41;4936133;28;20210;-50
2022/11/17 10:43:53;;;;;;;7.15;5.97;;;;;;;2.76;96.78;100023.63;4996439;28;20191;-48
2022/11/17 10:46:19;;;;;;;7.50;6.53;;;;;;;2.75;96.68;100024.50;4937457;28;20207;-48
2022/11/17 10:48:55;;;;;;;7.15;6.45;;;;;;;2.75;96.48;100035.09;4938182;29;20735;-49
2022/11/17 10:51:23;;;;;;;6.15;5.55;;;;;;;2.79;96.65;100025.34;4937531;29;20214;-48
2022/11/17 10:54:03;;;;;;;7.50;6.78;;;;;;;2.78;96.51;100021.81;4935257;28;20207;-49
2022/11/17 10:56:32;;;;;;;6.97;6.28;;;;;;;2.78;96.50;100013.03;4939958;28;20569;-50
2022/11/17 10:59:12;;;;;;;6.88;6.28;;;;;;;2.80;96.57;100043.84;4936796;28;20203;-48
2022/11/17 11:01:41;;;;;;;7.68;6.22;;;;;;;2.78;96.63;100007.72;4935943;29;20698;-48
2022/11/17 11:04:27;;;;;;;6.47;5.88;;;;;;;2.82;96.54;100039.38;4940607;28;20630;-48
2022/11/17 11:07:10;;;;;;;9.80;7.40;;;;;;;2.82;96.64;100012.94;4964465;28;20203;-49
2022/11/17 11:09:44;;;;;;;6.82;6.13;;;;;;;2.80;96.60;100012.09;4945746;28;20681;-49
2022/11/17 11:12:17;;;;;;;9.73;7.90;;;;;;;2.83;96.79;100017.31;4948499;28;20237;-47
2022/11/17 11:14:49;;;;;;;9.35;6.70;;;;;;;2.81;96.75;100013.81;4937832;29;20276;-46
2022/11/17 11:17:16;;;;;;;12.15;6.20;;;;;;;2.85;96.55;100027.88;4937766;29;20206;-48
2022/11/17 11:19:51;;;;;;;6.85;6.15;;;;;;;2.85;96.34;100012.84;4936757;28;20188;-46
2022/11/17 11:22:29;;;;;;;10.20;6.90;;;;;;;2.85;96.29;100012.00;4943352;28;20248;-51
2022/11/17 11:25:22;;;;;;;7.25;6.53;;;;;;;2.81;96.47;100002.38;4940480;29;20192;-50
2022/11/17 11:28:22;;;;;;;7.32;6.63;;;;;;;2.81;96.54;100013.81;4938812;29;20238;-48
2022/11/17 11:31:13;;;;;;;8.30;7.25;;;;;;;2.82;96.74;100015.56;4943678;29;20206;-51
2022/11/17 11:34:16;;;;;;;7.78;6.82;;;;;;;2.84;96.69;99997.91;4942191;28;20191;-48
2022/11/17 11:36:49;;;;;;;8.52;7.00;;;;;;;2.85;96.90;99991.69;4940664;28;20233;-48
2022/11/17 11:39:39;;;;;;;8.30;6.70;;;;;;;2.82;96.69;99993.50;4952299;28;20176;-48
2022/11/17 11:42:36;;;;;;;9.05;6.82;;;;;;;2.84;96.83;99984.69;4934401;28;20698;-48
2022/11/17 11:45:26;;;;;;;10.05;6.68;;;;;;;2.82;97.06;99977.66;4939688;29;20176;-49
2022/11/17 11:48:20;;;;;;;8.25;7.22;;;;;;;2.85;96.85;99991.69;4936538;29;20214;-50
2022/11/17 11:50:58;;;;;;;7.85;6.10;;;;;;;2.89;96.63;99968.72;5005754;28;20278;-49
2022/11/17 11:53:31;;;;;;;6.97;6.20;;;;;;;2.88;97.11;99988.09;4932762;28;20203;-50
2022/11/17 11:56:25;;;;;;;7.10;6.40;;;;;;;2.96;96.83;99986.19;5015612;28;20565;-49
2022/11/17 11:59:03;;;;;;;7.40;6.22;;;;;;;2.98;96.62;99991.47;4932011;28;20245;-49
2022/11/17 12:01:42;;;;;;;7.50;5.50;;;;;;;3.05;96.80;99988.63;4938361;29;20194;-50
2022/11/17 12:04:29;;;;;;;9.65;6.55;;;;;;;3.08;96.71;99987.69;4936432;28;20226;-51
2022/11/17 12:07:09;;;;;;;6.30;5.70;;;;;;;3.08;96.64;99990.34;4936408;28;20292;-50